createdAt,value
2022-09-23T00:01:28.204Z,1.93
2022-09-23T00:03:56.377Z,1.87
2022-09-23T00:06:24.386Z,1.47
2022-09-23T00:08:52.284Z,2.37
2022-09-23T00:11:26.691Z,2.40
2022-09-23T00:13:56.887Z,2.20
2022-09-23T00:16:29.118Z,2.03
2022-09-23T00:19:01.467Z,2.47
2022-09-23T00:21:29.472Z,2.10
2022-09-23T00:23:56.275Z,2.10
2022-09-23T00:26:25.141Z,2.37
2022-09-23T00:28:56.772Z,2.60
2022-09-23T00:31:27.522Z,1.50
2022-09-23T00:33:56.872Z,2.47
2022-09-23T00:36:25.226Z,2.10
2022-09-23T00:38:53.466Z,2.10
2022-09-23T00:41:21.530Z,2.87
2022-09-23T00:43:56.741Z,1.87
2022-09-23T00:46:36.431Z,2.10
2022-09-23T00:49:15.630Z,2.07
2022-09-23T00:52:02.771Z,2.43
2022-09-23T00:54:32.483Z,2.27
2022-09-23T00:57:01.320Z,1.90
2022-09-23T00:59:29.163Z,2.23
2022-09-23T01:02:01.259Z,2.33
2022-09-23T01:04:30.043Z,1.90
2022-09-23T01:06:57.004Z,1.90
2022-09-23T01:09:25.206Z,2.07
2022-09-23T01:12:12.833Z,1.97
2022-09-23T01:15:04.660Z,1.87
2022-09-23T01:17:53.316Z,2.10
2022-09-23T01:20:43.116Z,2.00
2022-09-23T01:24:13.224Z,2.77
2022-09-23T01:26:49.488Z,2.10
2022-09-23T01:29:59.631Z,2.07
2022-09-23T01:32:47.792Z,1.87
2022-09-23T01:35:23.856Z,2.20
2022-09-23T01:37:58.038Z,2.10
2022-09-23T01:40:45.239Z,1.70
2022-09-23T01:43:36.404Z,2.33
2022-09-23T01:46:19.879Z,1.87
2022-09-23T01:49:20.572Z,2.07
2022-09-23T01:51:57.239Z,2.27
2022-09-23T01:54:45.574Z,2.00
2022-09-23T01:57:27.837Z,2.23
2022-09-23T02:00:05.819Z,2.10
2022-09-23T02:02:49.857Z,2.17
2022-09-23T02:05:24.577Z,2.50
2022-09-23T02:08:14.361Z,2.37
2022-09-23T02:10:58.907Z,2.07
2022-09-23T02:13:25.835Z,2.00
2022-09-23T02:15:58.544Z,2.53
2022-09-23T02:18:34.504Z,2.43
2022-09-23T02:21:06.926Z,2.27
2022-09-23T02:23:47.218Z,1.90
2022-09-23T02:26:41.317Z,2.20
2022-09-23T02:29:24.888Z,2.40
2022-09-23T02:32:20.538Z,2.53
2022-09-23T02:35:33.303Z,2.27
2022-09-23T02:38:44.667Z,2.30
2022-09-23T02:42:05.972Z,2.27
2022-09-23T02:44:36.336Z,2.07
2022-09-23T02:47:03.576Z,2.37
2022-09-23T02:49:32.897Z,2.60
2022-09-23T02:52:07.642Z,2.03
2022-09-23T02:54:35.503Z,2.60
2022-09-23T02:57:10.289Z,2.47
2022-09-23T02:59:38.245Z,2.63
2022-09-23T03:02:14.403Z,2.60
2022-09-23T03:05:06.733Z,2.37
2022-09-23T03:07:55.306Z,2.33
2022-09-23T03:10:42.936Z,2.57
2022-09-23T03:13:42.830Z,2.37
2022-09-23T03:16:21.809Z,2.33
2022-09-23T03:19:03.619Z,2.87
2022-09-23T03:22:00.843Z,2.50
2022-09-23T03:24:34.515Z,2.47
2022-09-23T03:27:13.571Z,2.70
2022-09-23T03:29:47.232Z,2.40
2022-09-23T03:32:22.147Z,3.00
2022-09-23T03:34:52.461Z,2.47
2022-09-23T03:37:31.436Z,2.57
2022-09-23T03:40:20.960Z,2.60
2022-09-23T03:42:49.125Z,2.80
2022-09-23T03:45:26.642Z,3.03
2022-09-23T03:47:56.244Z,3.00
2022-09-23T03:50:25.800Z,2.33
2022-09-23T03:52:53.300Z,2.13
2022-09-23T03:55:21.267Z,2.70
2022-09-23T03:57:51.059Z,2.40
2022-09-23T04:00:20.339Z,2.70
2022-09-23T04:02:47.218Z,2.80
2022-09-23T04:05:14.970Z,2.80
2022-09-23T04:07:42.652Z,2.30
2022-09-23T04:10:10.388Z,2.87
2022-09-23T04:12:40.194Z,2.87
2022-09-23T04:15:07.854Z,3.20
2022-09-23T04:17:34.844Z,3.00
2022-09-23T04:20:02.147Z,2.97
2022-09-23T04:22:29.037Z,2.50
2022-09-23T04:24:56.323Z,2.90
2022-09-23T04:27:23.359Z,3.63
2022-09-23T04:29:50.430Z,2.70
2022-09-23T04:32:20.805Z,3.00
2022-09-23T04:34:47.779Z,2.53
2022-09-23T04:37:17.233Z,3.20
2022-09-23T04:39:44.299Z,2.50
2022-09-23T04:42:11.188Z,2.73
2022-09-23T04:44:38.945Z,3.00
2022-09-23T04:47:08.496Z,2.70
2022-09-23T04:49:38.410Z,2.57
2022-09-23T04:52:07.803Z,2.90
2022-09-23T04:54:34.930Z,2.40
2022-09-23T04:57:04.305Z,2.40
2022-09-23T04:59:35.913Z,2.70
2022-09-23T05:02:02.853Z,2.73
2022-09-23T05:04:36.296Z,3.00
2022-09-23T05:07:03.927Z,2.70
2022-09-23T05:09:33.628Z,3.47
2022-09-23T05:12:02.743Z,3.03
2022-09-23T05:14:29.871Z,3.20
2022-09-23T05:16:56.854Z,2.70
2022-09-23T05:19:27.022Z,3.53
2022-09-23T05:21:56.181Z,2.77
2022-09-23T05:24:25.207Z,3.00
2022-09-23T05:26:52.515Z,2.90
2022-09-23T05:29:22.435Z,2.80
2022-09-23T05:31:52.453Z,3.30
2022-09-23T05:34:23.294Z,2.90
2022-09-23T05:36:50.608Z,4.10
2022-09-23T05:39:17.480Z,2.80
2022-09-23T05:41:44.541Z,2.80
2022-09-23T05:44:11.604Z,3.13
2022-09-23T05:46:40.797Z,2.93
2022-09-23T05:49:10.595Z,3.40
2022-09-23T05:51:37.809Z,3.90
2022-09-23T05:54:06.142Z,3.17
2022-09-23T05:56:37.234Z,3.40
2022-09-23T05:59:07.087Z,3.80
2022-09-23T06:01:36.778Z,2.93
2022-09-23T06:04:07.583Z,3.10
2022-09-23T06:06:42.754Z,3.17
2022-09-23T06:09:15.109Z,3.40
2022-09-23T06:11:46.754Z,3.30
2022-09-23T06:14:17.307Z,3.20
2022-09-23T06:16:46.263Z,3.10
2022-09-23T06:19:13.312Z,3.10
2022-09-23T06:21:41.019Z,3.73
2022-09-23T06:24:16.959Z,3.40
2022-09-23T06:26:45.881Z,4.10
2022-09-23T06:29:12.793Z,5.20
2022-09-23T06:31:43.317Z,3.17
2022-09-23T06:34:14.582Z,3.70
2022-09-23T06:36:45.311Z,3.37
2022-09-23T06:39:14.996Z,2.93
2022-09-23T06:41:42.202Z,3.40
2022-09-23T06:44:09.395Z,2.67
2022-09-23T06:46:37.255Z,3.10
2022-09-23T06:49:04.223Z,3.50
2022-09-23T06:51:31.476Z,3.27
2022-09-23T06:54:00.808Z,3.10
2022-09-23T06:56:32.533Z,2.80
2022-09-23T06:59:05.655Z,3.27
2022-09-23T07:01:35.751Z,3.47
2022-09-23T07:04:05.358Z,3.10
2022-09-23T07:06:32.590Z,2.87
2022-09-23T07:09:01.162Z,3.53
2022-09-23T07:11:32.667Z,2.73
2022-09-23T07:13:59.741Z,3.40
2022-09-23T07:16:29.042Z,3.53
2022-09-23T07:19:01.332Z,3.07
2022-09-23T07:21:28.437Z,3.33
2022-09-23T07:23:58.007Z,3.30
2022-09-23T07:26:25.828Z,3.13
2022-09-23T07:28:57.062Z,3.00
2022-09-23T07:31:38.226Z,2.70
2022-09-23T07:34:08.052Z,3.10
2022-09-23T07:36:40.811Z,3.17
2022-09-23T07:39:14.718Z,3.00
2022-09-23T07:41:44.601Z,3.30
2022-09-23T07:44:21.928Z,3.43
2022-09-23T07:46:52.858Z,3.13
2022-09-23T07:49:20.579Z,2.87
2022-09-23T07:51:51.203Z,2.50
2022-09-23T07:54:21.225Z,2.90
2022-09-23T07:56:51.027Z,2.83
2022-09-23T07:59:18.966Z,3.23
2022-09-23T08:01:57.340Z,3.30
2022-09-23T08:04:31.033Z,2.93
2022-09-23T08:07:04.724Z,2.53
2022-09-23T08:09:41.488Z,2.87
2022-09-23T08:12:16.385Z,3.13
2022-09-23T08:14:45.709Z,2.90
2022-09-23T08:17:13.882Z,1.90
2022-09-23T08:19:41.036Z,2.77
2022-09-23T08:22:17.736Z,2.67
2022-09-23T08:24:46.806Z,2.43
2022-09-23T08:27:16.704Z,2.10
2022-09-23T08:29:43.787Z,2.10
2022-09-23T08:32:10.889Z,2.23
2022-09-23T08:34:37.976Z,2.03
2022-09-23T08:37:08.993Z,1.80
2022-09-23T08:39:36.043Z,2.23
2022-09-23T08:42:18.977Z,1.83
2022-09-23T08:44:55.483Z,3.60
2022-09-23T08:47:22.356Z,2.10
2022-09-23T08:50:00.508Z,2.47
2022-09-23T08:53:10.880Z,2.20
2022-09-23T08:55:47.750Z,2.20
2022-09-23T08:58:26.990Z,2.20
2022-09-23T09:01:24.880Z,2.27
2022-09-23T09:04:01.227Z,1.77
2022-09-23T09:06:52.852Z,2.30
2022-09-23T09:09:30.873Z,1.87
2022-09-23T09:12:27.254Z,1.60
2022-09-23T09:15:14.607Z,2.20
2022-09-23T09:18:08.063Z,1.70
2022-09-23T09:20:51.858Z,1.80
2022-09-23T09:23:22.948Z,2.03
2022-09-23T09:25:57.558Z,1.73
2022-09-23T09:28:39.243Z,1.70
2022-09-23T09:31:24.790Z,1.37
2022-09-23T09:34:16.922Z,1.50
2022-09-23T09:36:50.333Z,1.40
2022-09-23T09:39:17.923Z,1.53
2022-09-23T09:41:52.178Z,1.50
2022-09-23T09:44:40.502Z,1.70
2022-09-23T09:47:51.187Z,1.33
2022-09-23T09:50:49.448Z,1.50
2022-09-23T09:53:24.079Z,1.77
2022-09-23T09:56:05.300Z,1.33
2022-09-23T09:58:51.967Z,1.70
2022-09-23T10:01:26.129Z,1.20
2022-09-23T10:03:59.163Z,1.10
2022-09-23T10:06:39.921Z,1.70
2022-09-23T10:09:19.555Z,1.17
2022-09-23T10:12:15.980Z,1.40
2022-09-23T10:14:44.427Z,1.30
2022-09-23T10:17:39.167Z,1.17
2022-09-23T10:20:14.680Z,5.17
2022-09-23T10:22:46.479Z,1.70
2022-09-23T10:25:21.651Z,1.60
2022-09-23T10:27:48.567Z,1.27
2022-09-23T10:30:15.690Z,3.40
2022-09-23T10:32:48.564Z,1.20
2022-09-23T10:35:21.092Z,1.50
2022-09-23T10:37:59.949Z,1.10
2022-09-23T10:40:48.525Z,1.70
2022-09-23T10:44:09.826Z,1.67
2022-09-23T10:46:49.195Z,1.00
2022-09-23T10:49:48.986Z,1.30
2022-09-23T10:52:37.009Z,1.30
2022-09-23T10:55:25.782Z,1.57
2022-09-23T10:58:43.890Z,1.00
2022-09-23T11:01:49.281Z,1.50
2022-09-23T11:04:52.946Z,1.20
2022-09-23T11:07:49.379Z,1.20
2022-09-23T11:10:57.640Z,1.47
2022-09-23T11:13:30.355Z,1.27
2022-09-23T11:16:21.159Z,1.90
2022-09-23T11:18:55.644Z,1.40
2022-09-23T11:22:16.027Z,1.70
2022-09-23T11:25:24.078Z,1.10
2022-09-23T11:28:03.722Z,1.53
2022-09-23T11:31:06.602Z,1.53
2022-09-23T11:34:16.355Z,1.30
2022-09-23T11:36:50.900Z,2.10
2022-09-23T11:39:36.280Z,1.30
2022-09-23T11:42:10.770Z,1.60
2022-09-23T11:44:44.852Z,1.30
2022-09-23T11:47:21.155Z,1.60
2022-09-23T11:50:27.222Z,2.03
2022-09-23T11:53:22.820Z,1.80
2022-09-23T11:55:58.815Z,1.67
2022-09-23T11:58:37.612Z,1.97
2022-09-23T12:01:16.867Z,2.30
2022-09-23T12:04:14.349Z,1.97
2022-09-23T12:07:13.685Z,2.30
2022-09-23T12:10:06.484Z,2.37
2022-09-23T12:12:54.247Z,1.87
2022-09-23T12:15:33.412Z,2.20
2022-09-23T12:18:23.563Z,2.77
2022-09-23T12:21:38.815Z,1.97
2022-09-23T12:24:33.101Z,2.30
2022-09-23T12:27:11.097Z,1.70
2022-09-23T12:29:42.237Z,1.80
2022-09-23T12:32:18.609Z,1.87
2022-09-23T12:34:52.488Z,1.97
2022-09-23T12:37:35.611Z,1.50
2022-09-23T12:40:23.084Z,1.70
2022-09-23T12:42:52.565Z,1.90
2022-09-23T12:45:40.582Z,1.57
2022-09-23T12:48:25.709Z,1.63
2022-09-23T12:51:13.398Z,2.00
2022-09-23T12:53:50.860Z,2.03
2022-09-23T12:56:28.955Z,1.80
2022-09-23T12:59:21.657Z,1.53
2022-09-23T13:01:48.900Z,2.17
2022-09-23T13:05:10.116Z,1.63
2022-09-23T13:07:48.115Z,1.50
2022-09-23T13:10:32.829Z,1.93
2022-09-23T13:13:02.531Z,1.80
2022-09-23T13:15:36.133Z,1.50
2022-09-23T13:18:21.661Z,2.00
2022-09-23T13:20:51.126Z,1.53
2022-09-23T13:23:23.574Z,1.90
2022-09-23T13:25:56.733Z,1.83
2022-09-23T13:29:00.389Z,1.77
2022-09-23T13:31:27.640Z,2.10
2022-09-23T13:34:05.034Z,2.27
2022-09-23T13:36:48.046Z,2.07
2022-09-23T13:39:27.667Z,1.97
2022-09-23T13:42:01.706Z,1.90
2022-09-23T13:44:30.082Z,1.87
2022-09-23T13:47:03.505Z,1.87
2022-09-23T13:49:36.663Z,1.77
2022-09-23T13:52:04.598Z,1.87
2022-09-23T13:54:49.827Z,1.60
2022-09-23T13:57:34.520Z,1.90
2022-09-23T14:00:25.502Z,2.30
2022-09-23T14:02:57.022Z,2.27
2022-09-23T14:05:33.886Z,1.80
2022-09-23T14:08:03.503Z,1.70
2022-09-23T14:10:31.256Z,2.63
2022-09-23T14:12:59.510Z,2.30
2022-09-23T14:15:27.088Z,1.90
2022-09-23T14:18:03.691Z,2.37
2022-09-23T14:20:34.304Z,2.00
2022-09-23T14:23:15.460Z,2.70
2022-09-23T14:25:47.035Z,2.00
2022-09-23T14:28:23.715Z,2.00
2022-09-23T14:30:54.548Z,2.40
2022-09-23T14:33:33.529Z,2.40
2022-09-23T14:36:28.642Z,2.90
2022-09-23T14:39:09.048Z,2.70
2022-09-23T14:41:43.865Z,2.37
2022-09-23T14:44:28.355Z,2.30
2022-09-23T14:47:01.351Z,2.57
2022-09-23T14:49:28.507Z,2.40
2022-09-23T14:52:00.572Z,2.30
2022-09-23T14:54:37.654Z,2.23
2022-09-23T14:57:29.700Z,2.40
2022-09-23T15:00:29.443Z,2.70
2022-09-23T15:03:14.635Z,2.20
2022-09-23T15:05:50.750Z,2.47
2022-09-23T15:08:23.194Z,2.77
2022-09-23T15:10:50.711Z,2.50
2022-09-23T15:13:45.550Z,2.87
2022-09-23T15:16:15.603Z,2.83
2022-09-23T15:18:54.279Z,2.67
2022-09-23T15:21:25.025Z,2.50
2022-09-23T15:23:55.085Z,2.70
2022-09-23T15:26:26.513Z,2.97
2022-09-23T15:28:58.641Z,2.73
2022-09-23T15:31:27.982Z,3.27
2022-09-23T15:33:56.065Z,3.17
2022-09-23T15:36:30.705Z,3.20
2022-09-23T15:39:05.366Z,3.00
2022-09-23T15:41:36.029Z,3.40
2022-09-23T15:44:13.275Z,3.57
2022-09-23T15:46:52.162Z,3.07
2022-09-23T15:49:39.189Z,3.20
2022-09-23T15:52:10.267Z,2.90
2022-09-23T15:54:38.368Z,3.20
2022-09-23T15:57:05.597Z,2.53
2022-09-23T15:59:33.082Z,2.77
2022-09-23T16:02:05.901Z,2.70
2022-09-23T16:04:36.264Z,2.60
2022-09-23T16:07:05.259Z,3.70
2022-09-23T16:09:32.404Z,2.70
2022-09-23T16:12:03.502Z,2.90
2022-09-23T16:14:33.260Z,2.90
2022-09-23T16:17:05.222Z,3.17
2022-09-23T16:19:34.285Z,2.60
2022-09-23T16:22:01.785Z,2.50
2022-09-23T16:24:29.396Z,2.93
2022-09-23T16:27:00.241Z,2.70
2022-09-23T16:29:29.707Z,2.43
2022-09-23T16:32:01.049Z,3.80
2022-09-23T16:34:28.787Z,3.80
2022-09-23T16:36:56.242Z,3.70
2022-09-23T16:39:23.401Z,2.70
2022-09-23T16:41:50.594Z,2.20
2022-09-23T16:44:17.739Z,2.87
2022-09-23T16:46:44.812Z,2.57
2022-09-23T16:49:16.711Z,2.83
2022-09-23T16:51:43.956Z,3.03
2022-09-23T16:54:13.213Z,3.73
2022-09-23T16:56:44.265Z,3.63
2022-09-23T16:59:15.976Z,3.70
2022-09-23T17:02:04.511Z,3.37
2022-09-23T17:04:35.479Z,4.00
2022-09-23T17:07:05.216Z,4.50
2022-09-23T17:09:32.622Z,5.50
2022-09-23T17:12:16.542Z,4.10
2022-09-23T17:14:43.734Z,4.90
2022-09-23T17:17:13.357Z,5.67
2022-09-23T17:19:42.799Z,5.40
2022-09-23T17:22:10.015Z,6.20
2022-09-23T17:24:39.136Z,6.90
2022-09-23T17:27:06.125Z,7.63
2022-09-23T17:29:33.374Z,8.00
2022-09-23T17:32:00.368Z,9.30
2022-09-23T17:34:30.107Z,9.73
2022-09-23T17:36:57.432Z,8.90
2022-09-23T17:39:29.149Z,8.30
2022-09-23T17:41:57.482Z,7.97
2022-09-23T17:44:24.740Z,8.00
2022-09-23T17:46:52.607Z,7.67
2022-09-23T17:49:24.171Z,4.87
2022-09-23T17:51:53.750Z,5.43
2022-09-23T17:54:23.104Z,5.10
2022-09-23T17:56:50.118Z,5.23
2022-09-23T17:59:17.450Z,5.60
2022-09-23T18:01:46.825Z,5.93
2022-09-23T18:04:16.251Z,5.43
2022-09-23T18:06:43.756Z,6.07
2022-09-23T18:09:13.525Z,5.90
2022-09-23T18:11:53.406Z,4.60
2022-09-23T18:14:26.619Z,4.63
2022-09-23T18:17:01.302Z,4.20
2022-09-23T18:19:30.485Z,5.37
2022-09-23T18:21:59.687Z,5.60
2022-09-23T18:24:34.222Z,5.17
2022-09-23T18:27:02.535Z,5.70
2022-09-23T18:29:31.654Z,5.03
2022-09-23T18:32:03.471Z,4.57
2022-09-23T18:34:31.174Z,5.50
2022-09-23T18:37:00.750Z,4.90
2022-09-23T18:39:29.235Z,4.80
2022-09-23T18:42:10.417Z,4.77
2022-09-23T18:44:39.992Z,5.17
2022-09-23T18:47:07.394Z,5.07
2022-09-23T18:49:53.874Z,4.70
2022-09-23T18:52:26.640Z,5.03
2022-09-23T18:55:01.203Z,4.80
2022-09-23T18:57:30.871Z,5.43
2022-09-23T19:00:00.220Z,6.20
2022-09-23T19:02:27.749Z,5.73
2022-09-23T19:04:55.125Z,5.67
2022-09-23T19:07:25.598Z,6.60
2022-09-23T19:09:59.783Z,5.93
2022-09-23T19:12:26.787Z,6.30
2022-09-23T19:14:55.752Z,6.80
2022-09-23T19:17:23.445Z,6.43
2022-09-23T19:19:52.547Z,7.17
2022-09-23T19:22:19.848Z,8.40
2022-09-23T19:24:47.231Z,9.73
2022-09-23T19:27:16.742Z,7.37
2022-09-23T19:29:48.064Z,9.17
2022-09-23T19:32:15.979Z,8.37
2022-09-23T19:34:44.334Z,7.17
2022-09-23T19:37:17.211Z,8.17
2022-09-23T19:39:44.777Z,8.33
2022-09-23T19:42:11.642Z,8.70
2022-09-23T19:44:41.216Z,9.83
2022-09-23T19:47:15.369Z,9.03
2022-09-23T19:49:44.732Z,8.37
2022-09-23T19:52:12.849Z,8.63
2022-09-23T19:54:40.585Z,8.80
2022-09-23T19:57:10.469Z,8.03
2022-09-23T19:59:38.620Z,8.57
2022-09-23T20:02:06.610Z,8.40
2022-09-23T20:04:37.269Z,8.60
2022-09-23T20:07:08.030Z,9.57
2022-09-23T20:09:36.074Z,9.93
2022-09-23T20:12:06.174Z,10.38
2022-09-23T20:14:37.929Z,11.70
2022-09-23T20:17:04.884Z,10.37
2022-09-23T20:19:34.218Z,8.87
2022-09-23T20:22:19.599Z,9.23
2022-09-23T20:24:46.764Z,10.00
2022-09-23T20:27:17.039Z,10.90
2022-09-23T20:29:44.114Z,9.43
2022-09-23T20:32:13.309Z,8.53
2022-09-23T20:34:48.722Z,7.77
2022-09-23T20:37:23.462Z,6.93
2022-09-23T20:39:54.304Z,8.10
2022-09-23T20:42:24.361Z,10.30
2022-09-23T20:44:51.868Z,12.50
2022-09-23T20:47:19.660Z,16.00
2022-09-23T20:49:49.760Z,10.87
2022-09-23T20:52:21.564Z,9.00
2022-09-23T20:54:51.555Z,12.20
2022-09-23T20:57:20.246Z,10.70
2022-09-23T20:59:48.617Z,10.57
2022-09-23T21:02:16.206Z,11.20
2022-09-23T21:04:44.409Z,11.37
2022-09-23T21:07:11.387Z,10.93
2022-09-23T21:09:38.569Z,9.80
2022-09-23T21:12:08.112Z,7.33
2022-09-23T21:14:34.961Z,7.70
2022-09-23T21:17:04.796Z,7.33
2022-09-23T21:19:31.879Z,6.80
2022-09-23T21:22:07.593Z,7.40
2022-09-23T21:27:38.053Z,7.27
2022-09-23T21:30:08.003Z,7.30
2022-09-23T21:32:35.824Z,7.43
2022-09-23T21:35:02.777Z,6.90
2022-09-23T21:37:30.797Z,7.57
2022-09-23T21:40:16.164Z,7.53
2022-09-23T21:42:43.707Z,6.90
2022-09-23T21:45:21.085Z,7.07
2022-09-23T21:47:51.997Z,6.57
2022-09-23T21:50:21.655Z,6.13
2022-09-23T21:52:51.974Z,6.17
2022-09-23T21:55:41.164Z,7.27
2022-09-23T21:58:16.115Z,6.33
2022-09-23T22:00:44.931Z,6.80
2022-09-23T22:03:12.412Z,6.80
2022-09-23T22:05:44.031Z,7.30
2022-09-23T22:08:11.200Z,6.97
2022-09-23T22:10:38.454Z,7.00
2022-09-23T22:13:12.965Z,7.00
2022-09-23T22:15:40.232Z,7.37
2022-09-23T22:18:12.742Z,7.10
2022-09-23T22:20:44.339Z,7.60
2022-09-23T22:23:21.452Z,7.17
2022-09-23T22:26:02.804Z,6.63
2022-09-23T22:28:51.911Z,7.13
2022-09-23T22:31:37.588Z,7.60
2022-09-23T22:34:08.257Z,7.17
2022-09-23T22:36:40.637Z,7.10
2022-09-23T22:39:10.088Z,7.60
2022-09-23T22:41:41.430Z,7.30
2022-09-23T22:44:08.543Z,7.77
2022-09-23T22:46:37.610Z,7.40
2022-09-23T22:49:08.223Z,7.70
2022-09-23T22:51:35.314Z,8.33
2022-09-23T22:54:02.490Z,7.83
2022-09-23T22:56:29.640Z,7.47
2022-09-23T22:58:57.420Z,7.40
2022-09-23T23:01:24.462Z,8.00
2022-09-23T23:03:53.726Z,6.87
2022-09-23T23:06:22.721Z,7.00
2022-09-23T23:08:58.603Z,8.20
2022-09-23T23:11:27.660Z,7.50
2022-09-23T23:14:01.398Z,8.67
2022-09-23T23:16:35.078Z,7.10
2022-09-23T23:19:04.484Z,7.73
2022-09-23T23:21:31.586Z,7.70
2022-09-23T23:24:03.800Z,7.03
2022-09-23T23:26:33.001Z,8.10
2022-09-23T23:29:03.548Z,7.70
2022-09-23T23:31:32.250Z,7.53
2022-09-23T23:33:59.292Z,7.53
2022-09-23T23:36:26.470Z,7.67
2022-09-23T23:38:56.472Z,7.97
2022-09-23T23:41:30.008Z,7.20
2022-09-23T23:44:00.556Z,7.30
2022-09-23T23:46:30.451Z,7.97
2022-09-23T23:49:00.613Z,7.37
2022-09-23T23:51:28.696Z,7.83
2022-09-23T23:53:56.163Z,7.77
2022-09-23T23:56:27.711Z,7.93
2022-09-23T23:58:57.178Z,7.63
